EWG27TK EDDS-LDSP
Flight info
| Callsign | EWG27TK |
|---|---|
| Flight time | 1h 13m |
| Altitude | 37000 |
| Route | ABTAL4B/25 ABTAL L173 RIXED Y161 MAH L173 OTT M867 RADIZ DCT VEKEN DCT GIRDA DCT SAL |
| Aircraft | A320/M-SDE3FGHIRWY/LB1 |
Departure
| Time | 2026-05-05 18:17 |
|---|---|
| Airport | Stuttgart Airport (EDDS) |
Arrival
| Time | 2026-05-05 19:30 |
|---|---|
| Airport | Split Saint Jerome Airport (LDSP) |
| Time | Latitude | Longitude | Altitude | Speed | Heading |
|---|---|---|---|---|---|
| 2026-05-05 18:02 | 48.68753 | 9.19460 | 1306 ft | 0 kts | 162° |
| 2026-05-05 18:08 | 48.68751 | 9.19461 | 1306 ft | 1 kts | 163° |
| 2026-05-05 18:08 | 48.68732 | 9.19470 | 1305 ft | 4 kts | 164° |
| 2026-05-05 18:08 | 48.68697 | 9.19510 | 1304 ft | 7 kts | 98° |
| 2026-05-05 18:09 | 48.68714 | 9.19610 | 1300 ft | 11 kts | 76° |
| 2026-05-05 18:09 | 48.68739 | 9.19744 | 1297 ft | 14 kts | 74° |
| 2026-05-05 18:09 | 48.68772 | 9.19892 | 1294 ft | 14 kts | 57° |
| 2026-05-05 18:09 | 48.68832 | 9.20009 | 1292 ft | 13 kts | 60° |
| 2026-05-05 18:10 | 48.68863 | 9.20163 | 1287 ft | 18 kts | 73° |
| 2026-05-05 18:10 | 48.68905 | 9.20380 | 1281 ft | 22 kts | 73° |
| 2026-05-05 18:10 | 48.68951 | 9.20616 | 1275 ft | 23 kts | 73° |
| 2026-05-05 18:10 | 48.68996 | 9.20858 | 1268 ft | 24 kts | 74° |
| 2026-05-05 18:11 | 48.69045 | 9.21118 | 1260 ft | 25 kts | 73° |
| 2026-05-05 18:11 | 48.69094 | 9.21376 | 1252 ft | 25 kts | 73° |
| 2026-05-05 18:11 | 48.69145 | 9.21644 | 1244 ft | 26 kts | 74° |
| 2026-05-05 18:11 | 48.69196 | 9.21918 | 1235 ft | 27 kts | 74° |
| 2026-05-05 18:12 | 48.69249 | 9.22192 | 1229 ft | 27 kts | 73° |
| 2026-05-05 18:12 | 48.69298 | 9.22453 | 1225 ft | 25 kts | 73° |
| 2026-05-05 18:12 | 48.69345 | 9.22702 | 1222 ft | 24 kts | 74° |
| 2026-05-05 18:12 | 48.69392 | 9.22950 | 1218 ft | 23 kts | 73° |
| 2026-05-05 18:13 | 48.69437 | 9.23189 | 1215 ft | 23 kts | 73° |
| 2026-05-05 18:13 | 48.69484 | 9.23432 | 1208 ft | 24 kts | 74° |
| 2026-05-05 18:13 | 48.69532 | 9.23690 | 1200 ft | 26 kts | 74° |
| 2026-05-05 18:13 | 48.69581 | 9.23945 | 1192 ft | 22 kts | 73° |
| 2026-05-05 18:14 | 48.69613 | 9.24128 | 1188 ft | 12 kts | 89° |
| 2026-05-05 18:14 | 48.69582 | 9.24232 | 1185 ft | 10 kts | 119° |
| 2026-05-05 18:14 | 48.69532 | 9.24303 | 1184 ft | 9 kts | 161° |
| 2026-05-05 18:14 | 48.69472 | 9.24327 | 1183 ft | 9 kts | 165° |
| 2026-05-05 18:15 | 48.69413 | 9.24350 | 1182 ft | 6 kts | 171° |
| 2026-05-05 18:15 | 48.69389 | 9.24317 | 1183 ft | 0 kts | 255° |
| 2026-05-05 18:16 | 48.69386 | 9.24299 | 1183 ft | 14 kts | 255° |
| 2026-05-05 18:16 | 48.69291 | 9.23799 | 1197 ft | 81 kts | 254° |
| 2026-05-05 18:16 | 48.69082 | 9.22698 | 1220 ft | 137 kts | 254° |
| 2026-05-05 18:17 | 48.68775 | 9.21097 | 1382 ft | 170 kts | 253° |
| 2026-05-05 18:17 | 48.68470 | 9.19405 | 2006 ft | 167 kts | 256° |
| 2026-05-05 18:17 | 48.68181 | 9.17695 | 2616 ft | 171 kts | 254° |
| 2026-05-05 18:17 | 48.67841 | 9.16002 | 3234 ft | 168 kts | 253° |
| 2026-05-05 18:18 | 48.67498 | 9.14325 | 3785 ft | 167 kts | 253° |
| 2026-05-05 18:18 | 48.67160 | 9.12663 | 4308 ft | 167 kts | 253° |
| 2026-05-05 18:18 | 48.66793 | 9.10961 | 4725 ft | 175 kts | 246° |
| 2026-05-05 18:18 | 48.65950 | 9.09541 | 5008 ft | 195 kts | 212° |
| 2026-05-05 18:19 | 48.64572 | 9.09082 | 5261 ft | 222 kts | 177° |
| 2026-05-05 18:19 | 48.63084 | 9.10108 | 5556 ft | 251 kts | 143° |
| 2026-05-05 18:19 | 48.61839 | 9.12060 | 6118 ft | 264 kts | 124° |
| 2026-05-05 18:19 | 48.61249 | 9.14709 | 6734 ft | 277 kts | 94° |
| 2026-05-05 18:20 | 48.61340 | 9.17692 | 7176 ft | 293 kts | 85° |
| 2026-05-05 18:20 | 48.61540 | 9.20797 | 7775 ft | 302 kts | 85° |
| 2026-05-05 18:20 | 48.61744 | 9.23963 | 8553 ft | 304 kts | 83° |
| 2026-05-05 18:20 | 48.62184 | 9.27065 | 9286 ft | 308 kts | 72° |
| 2026-05-05 18:21 | 48.62914 | 9.30150 | 10001 ft | 311 kts | 73° |
| 2026-05-05 18:21 | 48.63114 | 9.33396 | 10421 ft | 320 kts | 101° |
| 2026-05-05 18:21 | 48.62441 | 9.36647 | 10747 ft | 333 kts | 114° |
| 2026-05-05 18:21 | 48.61560 | 9.39979 | 11044 ft | 349 kts | 113° |
| 2026-05-05 18:22 | 48.60695 | 9.43570 | 11401 ft | 363 kts | 110° |
| 2026-05-05 18:22 | 48.59916 | 9.47227 | 11987 ft | 368 kts | 109° |
| 2026-05-05 18:22 | 48.59191 | 9.50934 | 12623 ft | 370 kts | 108° |
| 2026-05-05 18:22 | 48.58484 | 9.54747 | 13249 ft | 373 kts | 107° |
| 2026-05-05 18:23 | 48.57791 | 9.58592 | 13691 ft | 375 kts | 107° |
| 2026-05-05 18:23 | 48.57120 | 9.62380 | 13824 ft | 376 kts | 107° |
| 2026-05-05 18:23 | 48.56490 | 9.65969 | 13825 ft | 374 kts | 107° |
| 2026-05-05 18:23 | 48.55799 | 9.69910 | 13848 ft | 377 kts | 107° |
| 2026-05-05 18:24 | 48.55127 | 9.73735 | 14267 ft | 382 kts | 107° |
| 2026-05-05 18:24 | 48.54458 | 9.77559 | 14954 ft | 380 kts | 107° |
| 2026-05-05 18:24 | 48.53779 | 9.81424 | 15562 ft | 381 kts | 107° |
| 2026-05-05 18:24 | 48.53093 | 9.85324 | 16114 ft | 383 kts | 107° |
| 2026-05-05 18:25 | 48.52413 | 9.89181 | 16631 ft | 385 kts | 107° |
| 2026-05-05 18:25 | 48.51948 | 9.91817 | 16993 ft | 387 kts | 107° |
| 2026-05-05 18:25 | 48.51023 | 9.97048 | 17669 ft | 390 kts | 108° |
| 2026-05-05 18:25 | 48.50324 | 10.00985 | 18153 ft | 392 kts | 108° |
| 2026-05-05 18:26 | 48.49614 | 10.04975 | 18650 ft | 394 kts | 108° |
| 2026-05-05 18:26 | 48.48900 | 10.08985 | 19135 ft | 396 kts | 108° |
| 2026-05-05 18:26 | 48.48184 | 10.12993 | 19605 ft | 398 kts | 108° |
| 2026-05-05 18:26 | 48.47456 | 10.17066 | 20077 ft | 401 kts | 108° |
| 2026-05-05 18:27 | 48.46734 | 10.21092 | 20544 ft | 402 kts | 108° |
| 2026-05-05 18:27 | 48.45992 | 10.25217 | 20998 ft | 404 kts | 108° |
| 2026-05-05 18:27 | 48.45263 | 10.29266 | 21450 ft | 405 kts | 108° |
| 2026-05-05 18:27 | 48.44522 | 10.33370 | 21906 ft | 407 kts | 108° |
| 2026-05-05 18:28 | 48.43023 | 10.41647 | 22753 ft | 410 kts | 108° |
| 2026-05-05 18:28 | 48.42265 | 10.45813 | 23161 ft | 411 kts | 108° |
| 2026-05-05 18:28 | 48.41505 | 10.49979 | 23543 ft | 413 kts | 108° |
| 2026-05-05 18:29 | 48.40748 | 10.54126 | 23902 ft | 415 kts | 108° |
| 2026-05-05 18:29 | 48.39975 | 10.58347 | 24262 ft | 417 kts | 108° |
| 2026-05-05 18:29 | 48.39213 | 10.62497 | 24646 ft | 418 kts | 108° |
| 2026-05-05 18:29 | 48.38440 | 10.66698 | 24958 ft | 421 kts | 109° |
| 2026-05-05 18:30 | 48.37660 | 10.70939 | 25298 ft | 423 kts | 109° |
| 2026-05-05 18:30 | 48.36871 | 10.75207 | 25626 ft | 425 kts | 109° |
| 2026-05-05 18:30 | 48.36078 | 10.79487 | 25915 ft | 427 kts | 109° |
| 2026-05-05 18:30 | 48.35282 | 10.83775 | 26244 ft | 429 kts | 109° |
| 2026-05-05 18:31 | 48.34475 | 10.88118 | 26559 ft | 430 kts | 109° |
| 2026-05-05 18:31 | 48.33667 | 10.92447 | 26841 ft | 433 kts | 108° |
| 2026-05-05 18:31 | 48.32858 | 10.96778 | 27150 ft | 434 kts | 109° |
| 2026-05-05 18:31 | 48.32040 | 11.01142 | 27434 ft | 436 kts | 109° |
| 2026-05-05 18:32 | 48.31213 | 11.05547 | 27710 ft | 438 kts | 109° |
| 2026-05-05 18:32 | 48.30380 | 11.09967 | 27981 ft | 440 kts | 109° |
| 2026-05-05 18:32 | 48.29545 | 11.14398 | 28284 ft | 441 kts | 109° |
| 2026-05-05 18:32 | 48.28714 | 11.18793 | 28693 ft | 439 kts | 109° |
| 2026-05-05 18:33 | 48.27867 | 11.23253 | 29104 ft | 437 kts | 109° |
| 2026-05-05 18:33 | 48.27029 | 11.27665 | 29437 ft | 437 kts | 109° |
| 2026-05-05 18:33 | 48.26221 | 11.32048 | 29740 ft | 438 kts | 107° |
| 2026-05-05 18:33 | 48.25495 | 11.36485 | 30046 ft | 439 kts | 107° |
| 2026-05-05 18:34 | 48.24778 | 11.40889 | 30355 ft | 439 kts | 107° |
| 2026-05-05 18:34 | 48.24044 | 11.45392 | 30647 ft | 439 kts | 107° |
| 2026-05-05 18:34 | 48.23316 | 11.49843 | 30927 ft | 440 kts | 107° |
| 2026-05-05 18:34 | 48.22582 | 11.54318 | 31232 ft | 439 kts | 107° |
| 2026-05-05 18:35 | 48.21848 | 11.58773 | 31518 ft | 439 kts | 107° |
| 2026-05-05 18:35 | 48.21117 | 11.63188 | 31771 ft | 440 kts | 107° |
| 2026-05-05 18:35 | 48.20383 | 11.67620 | 32014 ft | 441 kts | 108° |
| 2026-05-05 18:35 | 48.19548 | 11.71989 | 32283 ft | 438 kts | 113° |
| 2026-05-05 18:36 | 48.18436 | 11.76216 | 32544 ft | 435 kts | 119° |
| 2026-05-05 18:36 | 48.17086 | 11.80160 | 32748 ft | 433 kts | 124° |
| 2026-05-05 18:36 | 48.15463 | 11.83923 | 32967 ft | 431 kts | 130° |
| 2026-05-05 18:36 | 48.13600 | 11.87437 | 33177 ft | 429 kts | 136° |
| 2026-05-05 18:37 | 48.11506 | 11.90677 | 33373 ft | 427 kts | 141° |
| 2026-05-05 18:37 | 48.09358 | 11.93692 | 33600 ft | 427 kts | 141° |
| 2026-05-05 18:37 | 48.07152 | 11.96719 | 33840 ft | 427 kts | 142° |
| 2026-05-05 18:37 | 48.04946 | 11.99725 | 34050 ft | 427 kts | 142° |
| 2026-05-05 18:38 | 48.02732 | 12.02749 | 34291 ft | 427 kts | 142° |
| 2026-05-05 18:38 | 48.00552 | 12.05727 | 34514 ft | 427 kts | 142° |
| 2026-05-05 18:38 | 47.98333 | 12.08759 | 34689 ft | 428 kts | 142° |
| 2026-05-05 18:38 | 47.96125 | 12.11774 | 34876 ft | 429 kts | 142° |
| 2026-05-05 18:39 | 47.93896 | 12.14817 | 35057 ft | 429 kts | 142° |
| 2026-05-05 18:39 | 47.91631 | 12.17727 | 35210 ft | 429 kts | 144° |
| 2026-05-05 18:39 | 47.89437 | 12.20489 | 35338 ft | 431 kts | 143° |
| 2026-05-05 18:39 | 47.87093 | 12.23435 | 35477 ft | 432 kts | 144° |
| 2026-05-05 18:40 | 47.84843 | 12.26265 | 35634 ft | 433 kts | 144° |
| 2026-05-05 18:40 | 47.82507 | 12.29194 | 35798 ft | 433 kts | 144° |
| 2026-05-05 18:40 | 47.80181 | 12.32107 | 35925 ft | 435 kts | 144° |
| 2026-05-05 18:40 | 47.77879 | 12.34989 | 36053 ft | 436 kts | 144° |
| 2026-05-05 18:41 | 47.75537 | 12.37911 | 36176 ft | 437 kts | 143° |
| 2026-05-05 18:41 | 47.73206 | 12.40820 | 36305 ft | 438 kts | 143° |
| 2026-05-05 18:41 | 47.70876 | 12.43722 | 36431 ft | 438 kts | 144° |
| 2026-05-05 18:41 | 47.68530 | 12.46622 | 36592 ft | 438 kts | 144° |
| 2026-05-05 18:42 | 47.66150 | 12.49545 | 36732 ft | 439 kts | 144° |
| 2026-05-05 18:42 | 47.63755 | 12.52272 | 36841 ft | 438 kts | 148° |
| 2026-05-05 18:42 | 47.58616 | 12.57146 | 36891 ft | 437 kts | 154° |
| 2026-05-05 18:43 | 47.53281 | 12.61445 | 36888 ft | 437 kts | 155° |
| 2026-05-05 18:43 | 47.47919 | 12.65758 | 36887 ft | 438 kts | 155° |
| 2026-05-05 18:44 | 47.42572 | 12.70054 | 36910 ft | 437 kts | 155° |
| 2026-05-05 18:44 | 47.37240 | 12.74329 | 36914 ft | 438 kts | 155° |
| 2026-05-05 18:45 | 47.31849 | 12.78642 | 36918 ft | 439 kts | 155° |
| 2026-05-05 18:45 | 47.26440 | 12.82959 | 36939 ft | 440 kts | 155° |
| 2026-05-05 18:46 | 47.21037 | 12.87258 | 36938 ft | 441 kts | 155° |
| 2026-05-05 18:46 | 47.15629 | 12.91555 | 36925 ft | 441 kts | 155° |
| 2026-05-05 18:47 | 47.10201 | 12.95855 | 36907 ft | 441 kts | 155° |
| 2026-05-05 18:47 | 47.04770 | 13.00147 | 36915 ft | 441 kts | 155° |
| 2026-05-05 18:48 | 46.99389 | 13.04391 | 36919 ft | 442 kts | 155° |
| 2026-05-05 18:48 | 46.93972 | 13.08654 | 36920 ft | 442 kts | 155° |
| 2026-05-05 18:49 | 46.88540 | 13.12916 | 36905 ft | 443 kts | 155° |
| 2026-05-05 18:49 | 46.83093 | 13.17183 | 36941 ft | 444 kts | 155° |
| 2026-05-05 18:50 | 46.77621 | 13.21459 | 36949 ft | 444 kts | 155° |
| 2026-05-05 18:50 | 46.72164 | 13.25714 | 36941 ft | 445 kts | 155° |
| 2026-05-05 18:51 | 46.66688 | 13.29971 | 36945 ft | 445 kts | 155° |
| 2026-05-05 18:51 | 46.61232 | 13.34201 | 36951 ft | 445 kts | 155° |
| 2026-05-05 18:52 | 46.55724 | 13.38420 | 36947 ft | 444 kts | 157° |
| 2026-05-05 18:52 | 46.50182 | 13.42348 | 36943 ft | 444 kts | 157° |
| 2026-05-05 18:53 | 46.44638 | 13.46269 | 37250 ft | 445 kts | 157° |
| 2026-05-05 18:53 | 46.41848 | 13.48239 | 37047 ft | 443 kts | 157° |
| 2026-05-05 18:53 | 46.39064 | 13.50202 | 36978 ft | 443 kts | 158° |
| 2026-05-05 18:54 | 46.33470 | 13.54133 | 36944 ft | 445 kts | 158° |
| 2026-05-05 18:54 | 46.27881 | 13.58055 | 36952 ft | 445 kts | 158° |
| 2026-05-05 18:55 | 46.22347 | 13.61929 | 36949 ft | 445 kts | 158° |
| 2026-05-05 18:55 | 46.16775 | 13.65817 | 36946 ft | 445 kts | 158° |
| 2026-05-05 18:56 | 46.11130 | 13.69751 | 36946 ft | 445 kts | 158° |
| 2026-05-05 18:56 | 46.05553 | 13.73628 | 36940 ft | 446 kts | 158° |
| 2026-05-05 18:57 | 45.99958 | 13.77508 | 36935 ft | 446 kts | 159° |
| 2026-05-05 18:57 | 45.94347 | 13.81391 | 36941 ft | 447 kts | 159° |
| 2026-05-05 18:58 | 45.88728 | 13.85269 | 36936 ft | 449 kts | 158° |
| 2026-05-05 18:58 | 45.83095 | 13.89149 | 36943 ft | 448 kts | 158° |
| 2026-05-05 18:59 | 45.77466 | 13.93021 | 36937 ft | 448 kts | 159° |
| 2026-05-05 18:59 | 45.71819 | 13.96892 | 36941 ft | 449 kts | 159° |
| 2026-05-05 19:00 | 45.66156 | 14.00765 | 36939 ft | 451 kts | 159° |
| 2026-05-05 19:00 | 45.60487 | 14.04633 | 36947 ft | 452 kts | 159° |
| 2026-05-05 19:01 | 45.54811 | 14.08498 | 36952 ft | 453 kts | 159° |
| 2026-05-05 19:01 | 45.49119 | 14.12364 | 36946 ft | 452 kts | 159° |
| 2026-05-05 19:02 | 45.43409 | 14.16283 | 36955 ft | 454 kts | 159° |
| 2026-05-05 19:02 | 45.37734 | 14.20217 | 36963 ft | 454 kts | 159° |
| 2026-05-05 19:03 | 45.32041 | 14.24148 | 36967 ft | 455 kts | 159° |
| 2026-05-05 19:03 | 45.26365 | 14.28055 | 36962 ft | 455 kts | 159° |
| 2026-05-05 19:04 | 45.20614 | 14.32002 | 36971 ft | 456 kts | 159° |
| 2026-05-05 19:04 | 45.14874 | 14.35936 | 36972 ft | 456 kts | 159° |
| 2026-05-05 19:05 | 45.09129 | 14.39859 | 36972 ft | 457 kts | 159° |
| 2026-05-05 19:05 | 45.03375 | 14.43779 | 36966 ft | 457 kts | 159° |
| 2026-05-05 19:06 | 44.97650 | 14.47675 | 36966 ft | 458 kts | 159° |
| 2026-05-05 19:06 | 44.91882 | 14.51587 | 36970 ft | 459 kts | 159° |
| 2026-05-05 19:07 | 44.86149 | 14.55474 | 36726 ft | 453 kts | 159° |
| 2026-05-05 19:07 | 44.83323 | 14.57385 | 36051 ft | 453 kts | 159° |
| 2026-05-05 19:07 | 44.80491 | 14.59299 | 35326 ft | 453 kts | 159° |
| 2026-05-05 19:08 | 44.77664 | 14.61205 | 34562 ft | 455 kts | 160° |
| 2026-05-05 19:08 | 44.74818 | 14.63119 | 33763 ft | 458 kts | 159° |
| 2026-05-05 19:08 | 44.71928 | 14.65059 | 33008 ft | 460 kts | 160° |
| 2026-05-05 19:08 | 44.69043 | 14.66997 | 32293 ft | 460 kts | 160° |
| 2026-05-05 19:09 | 44.66141 | 14.68942 | 31586 ft | 459 kts | 159° |
| 2026-05-05 19:09 | 44.63285 | 14.70857 | 30837 ft | 460 kts | 159° |
| 2026-05-05 19:09 | 44.60375 | 14.72806 | 30065 ft | 461 kts | 159° |
| 2026-05-05 19:09 | 44.57451 | 14.74762 | 29293 ft | 461 kts | 159° |
| 2026-05-05 19:10 | 44.54593 | 14.76671 | 28529 ft | 461 kts | 158° |
| 2026-05-05 19:10 | 44.51671 | 14.78625 | 27740 ft | 462 kts | 158° |
| 2026-05-05 19:10 | 44.48788 | 14.80552 | 27194 ft | 456 kts | 158° |
| 2026-05-05 19:10 | 44.45938 | 14.82455 | 26657 ft | 451 kts | 158° |
| 2026-05-05 19:11 | 44.43136 | 14.84321 | 26063 ft | 447 kts | 158° |
| 2026-05-05 19:11 | 44.40339 | 14.86181 | 25468 ft | 443 kts | 158° |
| 2026-05-05 19:11 | 44.37581 | 14.88011 | 24898 ft | 439 kts | 158° |
| 2026-05-05 19:11 | 44.34800 | 14.89856 | 24337 ft | 435 kts | 158° |
| 2026-05-05 19:12 | 44.32095 | 14.91650 | 23776 ft | 431 kts | 158° |
| 2026-05-05 19:12 | 44.29386 | 14.93443 | 23216 ft | 428 kts | 158° |
| 2026-05-05 19:12 | 44.26730 | 14.95202 | 22882 ft | 424 kts | 158° |
| 2026-05-05 19:12 | 44.24052 | 14.96971 | 22627 ft | 423 kts | 158° |
| 2026-05-05 19:13 | 44.21383 | 14.98733 | 22372 ft | 422 kts | 158° |
| 2026-05-05 19:13 | 44.18741 | 15.00475 | 22122 ft | 421 kts | 158° |
| 2026-05-05 19:13 | 44.16081 | 15.02227 | 21869 ft | 420 kts | 158° |
| 2026-05-05 19:13 | 44.13426 | 15.03972 | 21592 ft | 418 kts | 158° |
| 2026-05-05 19:14 | 44.10776 | 15.05714 | 21273 ft | 417 kts | 158° |
| 2026-05-05 19:14 | 44.08162 | 15.07432 | 20882 ft | 414 kts | 158° |
| 2026-05-05 19:14 | 44.05571 | 15.09131 | 20408 ft | 411 kts | 158° |
| 2026-05-05 19:14 | 44.02991 | 15.10821 | 19908 ft | 409 kts | 158° |
| 2026-05-05 19:15 | 44.00416 | 15.12509 | 19377 ft | 408 kts | 158° |
| 2026-05-05 19:15 | 43.97860 | 15.14179 | 18849 ft | 406 kts | 158° |
| 2026-05-05 19:15 | 43.95333 | 15.15924 | 18338 ft | 405 kts | 153° |
| 2026-05-05 19:15 | 43.92963 | 15.18019 | 17821 ft | 406 kts | 147° |
| 2026-05-05 19:16 | 43.90746 | 15.20493 | 17326 ft | 405 kts | 142° |
| 2026-05-05 19:16 | 43.88654 | 15.23039 | 16825 ft | 403 kts | 141° |
| 2026-05-05 19:16 | 43.86554 | 15.25630 | 16306 ft | 401 kts | 141° |
| 2026-05-05 19:16 | 43.84458 | 15.28209 | 15791 ft | 399 kts | 141° |
| 2026-05-05 19:17 | 43.82397 | 15.30738 | 15277 ft | 397 kts | 141° |
| 2026-05-05 19:17 | 43.80309 | 15.33290 | 14770 ft | 395 kts | 141° |
| 2026-05-05 19:17 | 43.78266 | 15.35785 | 14264 ft | 393 kts | 141° |
| 2026-05-05 19:17 | 43.76230 | 15.38263 | 13768 ft | 390 kts | 141° |
| 2026-05-05 19:18 | 43.74184 | 15.40749 | 13269 ft | 388 kts | 141° |
| 2026-05-05 19:18 | 43.72167 | 15.43196 | 12787 ft | 385 kts | 141° |
| 2026-05-05 19:18 | 43.70162 | 15.45627 | 12302 ft | 382 kts | 140° |
| 2026-05-05 19:18 | 43.68169 | 15.48041 | 11820 ft | 379 kts | 140° |
| 2026-05-05 19:19 | 43.66201 | 15.50419 | 11350 ft | 376 kts | 141° |
| 2026-05-05 19:19 | 43.64241 | 15.52789 | 10864 ft | 373 kts | 141° |
| 2026-05-05 19:19 | 43.62302 | 15.55131 | 10539 ft | 365 kts | 140° |
| 2026-05-05 19:19 | 43.60436 | 15.57384 | 10384 ft | 353 kts | 141° |
| 2026-05-05 19:20 | 43.58604 | 15.59596 | 10243 ft | 341 kts | 141° |
| 2026-05-05 19:20 | 43.56838 | 15.61727 | 10098 ft | 330 kts | 141° |
| 2026-05-05 19:20 | 43.55153 | 15.63754 | 9963 ft | 320 kts | 141° |
| 2026-05-05 19:20 | 43.53478 | 15.65767 | 9686 ft | 315 kts | 141° |
| 2026-05-05 19:21 | 43.51830 | 15.67746 | 9405 ft | 311 kts | 141° |
| 2026-05-05 19:21 | 43.50204 | 15.69699 | 9132 ft | 307 kts | 141° |
| 2026-05-05 19:21 | 43.48618 | 15.71602 | 8866 ft | 302 kts | 141° |
| 2026-05-05 19:21 | 43.47041 | 15.73492 | 8605 ft | 298 kts | 141° |
| 2026-05-05 19:22 | 43.45496 | 15.75345 | 8349 ft | 294 kts | 141° |
| 2026-05-05 19:22 | 43.43955 | 15.77193 | 8091 ft | 290 kts | 141° |
| 2026-05-05 19:22 | 43.42445 | 15.78998 | 7741 ft | 284 kts | 141° |
| 2026-05-05 19:22 | 43.40963 | 15.80768 | 7128 ft | 282 kts | 141° |
| 2026-05-05 19:23 | 43.39504 | 15.82510 | 6602 ft | 276 kts | 140° |
| 2026-05-05 19:23 | 43.38048 | 15.84246 | 6223 ft | 273 kts | 140° |
| 2026-05-05 19:23 | 43.36621 | 15.85949 | 5889 ft | 273 kts | 140° |
| 2026-05-05 19:23 | 43.35176 | 15.87673 | 5554 ft | 273 kts | 140° |
| 2026-05-05 19:24 | 43.33758 | 15.89407 | 5215 ft | 273 kts | 134° |
| 2026-05-05 19:24 | 43.32830 | 15.91646 | 4849 ft | 275 kts | 103° |
| 2026-05-05 19:24 | 43.32900 | 15.94251 | 4507 ft | 278 kts | 73° |
| 2026-05-05 19:24 | 43.33901 | 15.96520 | 4173 ft | 280 kts | 47° |
| 2026-05-05 19:25 | 43.35284 | 15.98393 | 3912 ft | 277 kts | 47° |
| 2026-05-05 19:25 | 43.36634 | 16.00281 | 3579 ft | 276 kts | 48° |
| 2026-05-05 19:25 | 43.37953 | 16.02165 | 3324 ft | 274 kts | 49° |
| 2026-05-05 19:25 | 43.39291 | 16.04071 | 3005 ft | 273 kts | 49° |
| 2026-05-05 19:26 | 43.40548 | 16.05939 | 2967 ft | 260 kts | 51° |
| 2026-05-05 19:26 | 43.41688 | 16.07793 | 2964 ft | 246 kts | 54° |
| 2026-05-05 19:26 | 43.42710 | 16.09586 | 2965 ft | 232 kts | 56° |
| 2026-05-05 19:26 | 43.43663 | 16.11312 | 2952 ft | 222 kts | 57° |
| 2026-05-05 19:27 | 43.44576 | 16.12979 | 2779 ft | 216 kts | 57° |
| 2026-05-05 19:27 | 43.45471 | 16.14607 | 2496 ft | 210 kts | 56° |
| 2026-05-05 19:27 | 43.46339 | 16.16179 | 2217 ft | 204 kts | 56° |
| 2026-05-05 19:27 | 43.47176 | 16.17686 | 2035 ft | 190 kts | 56° |
| 2026-05-05 19:28 | 43.47955 | 16.19091 | 1752 ft | 180 kts | 57° |
| 2026-05-05 19:28 | 43.48692 | 16.20421 | 1513 ft | 169 kts | 56° |
| 2026-05-05 19:28 | 43.49382 | 16.21664 | 1280 ft | 156 kts | 56° |
| 2026-05-05 19:28 | 43.50014 | 16.22809 | 1065 ft | 142 kts | 55° |
| 2026-05-05 19:29 | 43.50611 | 16.23885 | 881 ft | 137 kts | 55° |
| 2026-05-05 19:29 | 43.51185 | 16.24916 | 703 ft | 135 kts | 54° |
| 2026-05-05 19:29 | 43.51763 | 16.25963 | 556 ft | 133 kts | 53° |
| 2026-05-05 19:29 | 43.52332 | 16.26995 | 365 ft | 133 kts | 54° |
| 2026-05-05 19:30 | 43.52900 | 16.28011 | 184 ft | 133 kts | 53° |
| 2026-05-05 19:30 | 43.53457 | 16.29012 | 69 ft | 128 kts | 52° |
| 2026-05-05 19:30 | 43.53866 | 16.29745 | 59 ft | 62 kts | 52° |
| 2026-05-05 19:30 | 43.54046 | 16.30088 | 59 ft | 22 kts | 83° |
| 2026-05-05 19:31 | 43.54002 | 16.30108 | 58 ft | 10 kts | 224° |
| 2026-05-05 19:31 | 43.53939 | 16.30071 | 58 ft | 9 kts | 196° |
| 2026-05-05 19:31 | 43.53880 | 16.30015 | 58 ft | 8 kts | 230° |
| 2026-05-05 19:31 | 43.53843 | 16.29948 | 58 ft | 9 kts | 234° |
| 2026-05-05 19:32 | 43.53806 | 16.29879 | 58 ft | 9 kts | 232° |
| 2026-05-05 19:32 | 43.53783 | 16.29861 | 58 ft | 2 kts | 139° |
| 2026-05-05 19:32 | 43.53777 | 16.29885 | 58 ft | 3 kts | 116° |
| 2026-05-05 19:32 | 43.53767 | 16.29917 | 58 ft | 3 kts | 111° |
| 2026-05-05 19:33 | 43.53763 | 16.29932 | 58 ft | 1 kts | 111° |
| 2026-05-05 19:33 | 43.53761 | 16.29937 | 58 ft | 0 kts | 111° |